Austin, Mississippi
Current Conditions -  °F | °C
As of 3:15 PM on Tuesday 21 Oct 2014 (Local Time) from KUTA Reporting Station
Clear Clear  
Wind Chill: 75°   Ceiling: Unl
Heat Index: 75°   Visibility: 10mi
Dew Point: 45°   Wind: 8mph
Humidity: 34%   Direction: 10°N
Pressure: 30.05"   Gusts: NA
Location:  34.6827°N, 90.3615°W
Report Text: KUTA 212015Z AUTO 01007KT 10SM CLR 24/07 A3005 RMK AO2
Loading
Personal Weather Stations






























Interactive Weather Map
Tropical Storm Tracking
New forecast layout! Learn more

10-Day Weather Forecast

Advertisements
Track Severe Weather on mobile